createdAt,value
2022-11-12T00:02:42.538Z,86.08
2022-11-12T00:05:27.418Z,86.05
2022-11-12T00:08:13.966Z,86.01
2022-11-12T00:10:58.857Z,85.96
2022-11-12T00:13:43.745Z,86.47
2022-11-12T00:16:28.614Z,86.41
2022-11-12T00:19:13.296Z,86.08
2022-11-12T00:21:58.235Z,85.83
2022-11-12T00:24:43.019Z,86.00
2022-11-12T00:27:28.093Z,86.63
2022-11-12T00:30:13.158Z,86.52
2022-11-12T00:33:02.689Z,86.76
2022-11-12T00:35:48.858Z,86.89
2022-11-12T00:38:33.736Z,86.80
2022-11-12T00:41:18.646Z,86.43
2022-11-12T00:44:03.885Z,86.65
2022-11-12T00:46:49.050Z,86.46
2022-11-12T00:49:34.020Z,86.28
2022-11-12T00:52:18.839Z,85.96
2022-11-12T00:55:04.323Z,86.74
2022-11-12T00:57:49.329Z,87.33
2022-11-12T01:00:34.350Z,86.79
2022-11-12T01:03:19.374Z,86.72
2022-11-12T01:06:05.795Z,87.15
2022-11-12T01:08:51.610Z,88.13
2022-11-12T01:11:36.533Z,88.13
2022-11-12T01:14:21.588Z,87.29
2022-11-12T01:17:06.380Z,87.76
2022-11-12T01:19:51.278Z,86.71
2022-11-12T01:22:36.031Z,87.35
2022-11-12T01:25:20.812Z,87.37
2022-11-12T01:28:05.686Z,87.26
2022-11-12T01:30:50.494Z,86.89
2022-11-12T01:33:35.484Z,86.77
2022-11-12T01:36:21.146Z,87.56
2022-11-12T01:39:08.288Z,87.86
2022-11-12T01:41:53.601Z,87.25
2022-11-12T01:44:42.164Z,87.38
2022-11-12T01:47:30.749Z,87.34
2022-11-12T01:50:33.119Z,87.19
2022-11-12T01:53:19.424Z,87.33
2022-11-12T01:56:05.893Z,87.57
2022-11-12T01:59:02.302Z,86.96
2022-11-12T02:01:47.422Z,86.59
2022-11-12T02:04:34.532Z,86.29
2022-11-12T02:07:22.656Z,86.13
2022-11-12T02:10:09.580Z,85.71
2022-11-12T02:13:13.273Z,85.57
2022-11-12T02:15:58.761Z,85.70
2022-11-12T02:18:43.862Z,85.65
2022-11-12T02:21:29.276Z,85.69
2022-11-12T02:24:13.998Z,85.46
2022-11-12T02:26:59.829Z,85.88
2022-11-12T02:29:47.556Z,86.22
2022-11-12T02:32:32.615Z,86.86
2022-11-12T02:35:17.495Z,86.92
2022-11-12T02:38:03.134Z,86.66
2022-11-12T02:40:48.297Z,86.26
2022-11-12T02:43:33.739Z,86.71
2022-11-12T02:46:19.415Z,85.94
2022-11-12T02:49:04.425Z,87.10
2022-11-12T02:51:49.318Z,86.48
2022-11-12T02:54:34.219Z,86.44
2022-11-12T02:57:19.132Z,86.00
2022-11-12T03:00:06.145Z,86.21
2022-11-12T03:03:00.235Z,87.08
2022-11-12T03:05:46.582Z,87.37
2022-11-12T03:08:31.363Z,86.01
2022-11-12T03:11:17.466Z,85.36
2022-11-12T03:14:02.743Z,86.02
2022-11-12T03:16:47.794Z,85.75
2022-11-12T03:19:32.697Z,86.21
2022-11-12T03:22:17.654Z,86.09
2022-11-12T03:25:02.586Z,85.59
2022-11-12T03:27:47.482Z,84.93
2022-11-12T03:30:35.858Z,86.30
2022-11-12T03:33:20.924Z,86.55
2022-11-12T03:36:06.130Z,87.00
2022-11-12T03:38:51.079Z,86.91
2022-11-12T03:41:35.862Z,86.23
2022-11-12T03:44:20.816Z,85.28
2022-11-12T03:47:05.570Z,87.69
2022-11-12T03:49:50.481Z,85.62
2022-11-12T03:52:35.534Z,86.17
2022-11-12T03:55:22.205Z,85.75
2022-11-12T03:58:07.562Z,87.48
2022-11-12T04:00:52.696Z,85.06
2022-11-12T04:03:37.536Z,88.14
2022-11-12T04:06:41.515Z,89.63
2022-11-12T04:09:26.704Z,88.13
2022-11-12T04:12:30.313Z,89.01
2022-11-12T04:15:15.638Z,88.53
2022-11-12T04:18:19.150Z,89.03
2022-11-12T04:21:22.976Z,89.32
2022-11-12T04:24:08.163Z,86.46
2022-11-12T04:26:52.995Z,86.65
2022-11-12T04:29:56.620Z,88.07
2022-11-12T04:32:54.524Z,86.71
2022-11-12T04:35:39.389Z,87.73
2022-11-12T04:38:24.629Z,87.49
2022-11-12T04:41:28.437Z,85.84
2022-11-12T04:44:32.418Z,89.04
2022-11-12T04:47:17.828Z,87.82
2022-11-12T04:50:13.017Z,88.53
2022-11-12T04:52:58.159Z,87.08
2022-11-12T04:55:42.985Z,86.65
2022-11-12T04:58:28.228Z,87.68
2022-11-12T05:01:13.181Z,87.94
2022-11-12T05:03:58.216Z,87.35
2022-11-12T05:06:53.203Z,89.83
2022-11-12T05:09:38.685Z,88.73
2022-11-12T05:12:23.572Z,87.44
2022-11-12T05:15:09.373Z,88.57
2022-11-12T05:17:54.513Z,87.09
2022-11-12T05:20:39.425Z,87.12
2022-11-12T05:23:24.298Z,86.71
2022-11-12T05:26:09.152Z,86.59
2022-11-12T05:28:54.150Z,87.24
2022-11-12T05:31:39.360Z,88.95
2022-11-12T05:34:24.264Z,87.50
2022-11-12T05:37:10.855Z,88.02
2022-11-12T05:39:56.191Z,87.46
2022-11-12T05:42:41.010Z,87.77
2022-11-12T05:45:25.926Z,88.69
2022-11-12T05:48:11.029Z,89.02
2022-11-12T05:51:12.424Z,88.84
2022-11-12T05:53:57.830Z,88.05
2022-11-12T05:56:42.868Z,87.38
2022-11-12T05:59:27.760Z,87.87
2022-11-12T06:02:12.791Z,87.50
2022-11-12T06:04:58.196Z,86.63
2022-11-12T06:07:43.185Z,87.13
2022-11-12T06:10:27.933Z,87.79
2022-11-12T06:13:13.043Z,87.72
2022-11-12T06:15:57.997Z,86.77
2022-11-12T06:18:43.230Z,89.19
2022-11-12T06:21:28.467Z,90.31
2022-11-12T06:24:14.178Z,89.47
2022-11-12T06:26:59.077Z,87.12
2022-11-12T06:29:44.021Z,89.89
2022-11-12T06:32:28.901Z,89.98
2022-11-12T06:35:14.037Z,89.31
2022-11-12T06:37:59.271Z,90.24
2022-11-12T06:40:44.157Z,89.76
2022-11-12T06:43:31.226Z,88.19
2022-11-12T06:46:17.578Z,87.98
2022-11-12T06:49:02.881Z,87.83
2022-11-12T06:51:50.361Z,87.88
2022-11-12T06:54:35.482Z,87.54
2022-11-12T06:57:20.315Z,87.68
2022-11-12T07:00:05.797Z,87.51
2022-11-12T07:02:50.560Z,87.79
2022-11-12T07:05:37.976Z,88.79
2022-11-12T07:08:23.023Z,89.06
2022-11-12T07:11:08.534Z,88.68
2022-11-12T07:13:53.725Z,88.36
2022-11-12T07:16:38.589Z,90.97
2022-11-12T07:19:23.554Z,91.13
2022-11-12T07:22:08.427Z,95.26
2022-11-12T07:24:53.427Z,91.13
2022-11-12T07:27:38.188Z,94.03
2022-11-12T07:30:23.110Z,95.20
2022-11-12T07:33:08.053Z,97.03
2022-11-12T07:36:07.067Z,94.91
2022-11-12T07:38:53.408Z,94.09
2022-11-12T07:41:38.545Z,97.46
2022-11-12T07:44:23.401Z,95.71
2022-11-12T07:47:08.218Z,100.00
2022-11-12T07:49:53.090Z,98.57
2022-11-12T07:52:37.942Z,100.00
2022-11-12T07:55:22.854Z,100.00
2022-11-12T07:58:07.757Z,100.00
2022-11-12T08:00:53.308Z,100.00
2022-11-12T08:03:38.277Z,100.00
2022-11-12T08:06:23.726Z,100.00
2022-11-12T08:09:10.015Z,100.00
2022-11-12T08:11:55.400Z,100.00
2022-11-12T08:14:40.426Z,100.00
2022-11-12T08:17:25.373Z,100.00
2022-11-12T08:20:10.485Z,100.00
2022-11-12T08:22:59.878Z,100.00
2022-11-12T08:25:45.126Z,100.00
2022-11-12T08:28:31.638Z,100.00
2022-11-12T08:31:19.930Z,100.00
2022-11-12T08:34:12.325Z,100.00
2022-11-12T08:36:57.565Z,100.00
2022-11-12T08:39:42.351Z,100.00
2022-11-12T08:42:27.278Z,100.00
2022-11-12T08:45:12.109Z,100.00
2022-11-12T08:48:19.131Z,100.00
2022-11-12T08:51:05.430Z,100.00
2022-11-12T08:53:50.904Z,100.00
2022-11-12T08:56:36.049Z,100.00
2022-11-12T08:59:21.000Z,100.00
2022-11-12T09:02:06.689Z,100.00
2022-11-12T09:04:51.816Z,100.00
2022-11-12T09:07:49.270Z,100.00
2022-11-12T09:10:35.510Z,100.00
2022-11-12T09:13:21.019Z,100.00
2022-11-12T09:16:08.962Z,100.00
2022-11-12T09:18:53.969Z,100.00
2022-11-12T09:21:38.889Z,100.00
2022-11-12T09:24:23.811Z,100.00
2022-11-12T09:27:08.617Z,100.00
2022-11-12T09:29:53.624Z,100.00
2022-11-12T09:32:38.750Z,100.00
2022-11-12T09:35:23.893Z,100.00
2022-11-12T09:38:09.006Z,100.00
2022-11-12T09:40:54.110Z,99.46
2022-11-12T09:43:51.404Z,99.75
2022-11-12T09:46:54.981Z,99.45
2022-11-12T09:49:52.325Z,100.00
2022-11-12T09:52:39.180Z,100.00
2022-11-12T09:55:32.093Z,100.00
2022-11-12T09:58:19.298Z,100.00
2022-11-12T10:01:15.253Z,100.00
2022-11-12T10:04:21.538Z,100.00
2022-11-12T10:07:11.593Z,100.00
2022-11-12T10:10:05.346Z,100.00
2022-11-12T10:13:06.788Z,100.00
2022-11-12T10:16:30.728Z,100.00
2022-11-12T10:19:42.989Z,100.00
2022-11-12T10:22:40.625Z,100.00
2022-11-12T10:25:25.863Z,100.00
2022-11-12T10:28:38.726Z,100.00
2022-11-12T10:31:24.508Z,100.00
2022-11-12T10:34:19.107Z,100.00
2022-11-12T10:37:14.917Z,99.87
2022-11-12T10:40:00.598Z,99.38
2022-11-12T10:43:01.297Z,99.60
2022-11-12T10:45:48.297Z,99.29
2022-11-12T10:48:34.149Z,98.42
2022-11-12T10:51:26.758Z,98.29
2022-11-12T10:54:27.015Z,95.99
2022-11-12T10:57:27.012Z,95.09
2022-11-12T11:00:12.112Z,95.21
2022-11-12T11:02:57.291Z,95.55
2022-11-12T11:06:02.030Z,95.00
2022-11-12T11:09:07.726Z,94.75
2022-11-12T11:11:54.041Z,92.35
2022-11-12T11:14:40.549Z,92.09
2022-11-12T11:17:25.351Z,92.84
2022-11-12T11:20:22.611Z,92.07
2022-11-12T11:23:49.498Z,90.81
2022-11-12T11:26:42.353Z,90.92
2022-11-12T11:29:47.807Z,89.47
2022-11-12T11:33:02.501Z,89.76
2022-11-12T11:36:18.024Z,89.37
2022-11-12T11:39:06.798Z,89.70
2022-11-12T11:42:13.815Z,89.11
2022-11-12T11:45:29.711Z,88.95
2022-11-12T11:48:45.565Z,87.88
2022-11-12T11:51:51.746Z,86.90
2022-11-12T11:55:15.615Z,87.68
2022-11-12T11:58:16.756Z,86.67
2022-11-12T12:01:19.695Z,85.81
2022-11-12T12:04:33.595Z,85.52
2022-11-12T12:07:35.194Z,85.55
2022-11-12T12:10:40.188Z,86.05
2022-11-12T12:13:49.660Z,85.56
2022-11-12T12:17:08.879Z,85.23
2022-11-12T12:20:18.480Z,85.83
2022-11-12T12:23:10.776Z,85.86
2022-11-12T12:26:00.542Z,85.26
2022-11-12T12:28:54.803Z,85.52
2022-11-12T12:31:58.670Z,85.18
2022-11-12T12:34:46.362Z,85.87
2022-11-12T12:37:42.408Z,83.88
2022-11-12T12:40:58.837Z,84.77
2022-11-12T12:43:52.385Z,84.55
2022-11-12T12:46:45.006Z,85.42
2022-11-12T12:49:34.211Z,85.28
2022-11-12T12:52:19.373Z,84.59
2022-11-12T12:55:04.555Z,84.68
2022-11-12T12:57:58.810Z,84.77
2022-11-12T13:00:50.482Z,84.94
2022-11-12T13:03:44.430Z,84.01
2022-11-12T13:06:34.310Z,84.42
2022-11-12T13:09:19.214Z,84.10
2022-11-12T13:12:04.790Z,84.28
2022-11-12T13:14:53.254Z,85.10
2022-11-12T13:17:44.508Z,83.94
2022-11-12T13:20:38.633Z,83.08
2022-11-12T13:24:02.730Z,83.36
2022-11-12T13:26:52.636Z,83.36
2022-11-12T13:29:37.851Z,84.05
2022-11-12T13:32:30.669Z,83.34
2022-11-12T13:35:21.889Z,82.18
2022-11-12T13:38:12.900Z,83.00
2022-11-12T13:41:17.466Z,83.19
2022-11-12T13:44:07.864Z,84.13
2022-11-12T13:46:55.635Z,81.42
2022-11-12T13:49:42.148Z,83.12
2022-11-12T13:52:28.859Z,81.42
2022-11-12T13:55:16.753Z,82.34
2022-11-12T13:58:01.935Z,81.75
2022-11-12T14:00:59.581Z,80.63
2022-11-12T14:03:48.225Z,83.00
2022-11-12T14:06:40.904Z,81.44
2022-11-12T14:09:50.935Z,80.19
2022-11-12T14:13:04.642Z,81.52
2022-11-12T14:15:59.131Z,80.49
2022-11-12T14:19:09.612Z,81.26
2022-11-12T14:22:18.587Z,82.04
2022-11-12T14:25:04.042Z,81.27
2022-11-12T14:27:51.407Z,81.49
2022-11-12T14:30:44.624Z,81.04
2022-11-12T14:33:31.873Z,81.54
2022-11-12T14:36:19.022Z,81.86
2022-11-12T14:39:04.037Z,82.46
2022-11-12T14:41:50.892Z,82.50
2022-11-12T14:44:37.954Z,82.84
2022-11-12T14:47:24.156Z,83.18
2022-11-12T14:50:16.315Z,84.83
2022-11-12T14:53:25.245Z,84.60
2022-11-12T14:56:35.326Z,84.90
2022-11-12T14:59:21.222Z,86.23
2022-11-12T15:02:42.734Z,86.41
2022-11-12T15:05:23.339Z,87.78
2022-11-12T15:08:11.472Z,87.18
2022-11-12T15:11:16.267Z,88.01
2022-11-12T15:14:05.830Z,88.56
2022-11-12T15:16:51.642Z,89.03
2022-11-12T15:19:41.636Z,88.23
2022-11-12T15:22:26.930Z,89.54
2022-11-12T15:25:30.007Z,90.40
2022-11-12T15:28:23.457Z,92.27
2022-11-12T15:31:18.621Z,91.15
2022-11-12T15:34:25.442Z,92.09
2022-11-12T15:37:19.679Z,90.50
2022-11-12T15:40:12.406Z,91.03
2022-11-12T15:42:57.930Z,91.53
2022-11-12T15:45:43.006Z,91.37
2022-11-12T15:48:28.418Z,91.95
2022-11-12T15:51:16.031Z,92.32
2022-11-12T15:54:00.986Z,91.73
2022-11-12T15:56:46.501Z,93.70
2022-11-12T15:59:31.790Z,94.03
2022-11-12T16:02:16.972Z,92.99
2022-11-12T16:05:01.999Z,93.36
2022-11-12T16:07:47.200Z,92.29
2022-11-12T16:10:32.037Z,92.48
2022-11-12T16:13:26.656Z,93.84
2022-11-12T16:16:12.009Z,92.19
2022-11-12T16:18:57.306Z,92.24
2022-11-12T16:21:42.211Z,91.27
2022-11-12T16:24:27.793Z,92.29
2022-11-12T16:27:16.212Z,92.04
2022-11-12T16:30:01.040Z,94.48
2022-11-12T16:32:48.179Z,92.76
2022-11-12T16:35:35.308Z,92.87
2022-11-12T16:38:20.116Z,92.74
2022-11-12T16:41:05.263Z,92.50
2022-11-12T16:43:51.504Z,92.06
2022-11-12T16:46:40.197Z,91.79
2022-11-12T16:49:26.149Z,93.68
2022-11-12T16:52:11.462Z,94.65
2022-11-12T16:55:01.522Z,94.91
2022-11-12T16:57:49.046Z,94.98
2022-11-12T17:00:35.117Z,93.50
2022-11-12T17:03:19.995Z,92.78
2022-11-12T17:06:04.977Z,93.43
2022-11-12T17:08:54.399Z,93.48
2022-11-12T17:11:39.215Z,92.60
2022-11-12T17:14:28.135Z,92.92
2022-11-12T17:17:13.689Z,92.64
2022-11-12T17:19:59.146Z,92.04
2022-11-12T17:22:44.138Z,92.58
2022-11-12T17:25:28.916Z,91.87
2022-11-12T17:28:13.879Z,91.42
2022-11-12T17:31:03.856Z,90.54
2022-11-12T17:33:52.970Z,92.07
2022-11-12T17:36:43.204Z,91.81
2022-11-12T17:39:28.749Z,91.32
2022-11-12T17:42:13.786Z,92.29
2022-11-12T17:44:58.615Z,94.03
2022-11-12T17:47:43.605Z,93.12
2022-11-12T17:50:28.389Z,93.14
2022-11-12T17:53:13.539Z,92.70
2022-11-12T17:55:59.209Z,93.33
2022-11-12T17:58:47.843Z,92.10
2022-11-12T18:01:34.497Z,92.86
2022-11-12T18:04:20.281Z,91.79
2022-11-12T18:07:07.369Z,91.81
2022-11-12T18:09:52.324Z,91.53
2022-11-12T18:12:37.174Z,91.70
2022-11-12T18:15:22.137Z,93.02
2022-11-12T18:18:06.983Z,92.64
2022-11-12T18:20:52.104Z,91.65
2022-11-12T18:23:38.717Z,92.31
2022-11-12T18:26:24.011Z,92.70
2022-11-12T18:29:09.197Z,91.75
2022-11-12T18:31:54.331Z,91.77
2022-11-12T18:34:44.448Z,91.56
2022-11-12T18:37:29.860Z,92.23
2022-11-12T18:40:14.901Z,92.75
2022-11-12T18:43:00.150Z,94.33
2022-11-12T18:45:53.689Z,93.97
2022-11-12T18:48:40.332Z,92.71
2022-11-12T18:51:25.314Z,92.53
2022-11-12T18:54:10.263Z,94.37
2022-11-12T18:56:55.031Z,93.46
2022-11-12T18:59:40.194Z,92.60
2022-11-12T19:02:25.018Z,93.03
2022-11-12T19:05:09.909Z,93.51
2022-11-12T19:07:54.880Z,92.75
2022-11-12T19:10:40.188Z,93.12
2022-11-12T19:13:25.951Z,94.11
2022-11-12T19:16:14.377Z,95.06
2022-11-12T19:18:59.271Z,93.63
2022-11-12T19:21:44.496Z,94.22
2022-11-12T19:24:30.671Z,92.58
2022-11-12T19:27:15.733Z,92.11
2022-11-12T19:30:03.307Z,91.55
2022-11-12T19:32:48.667Z,92.44
2022-11-12T19:35:33.575Z,92.63
2022-11-12T19:38:18.367Z,92.17
2022-11-12T19:41:08.335Z,92.64
2022-11-12T19:43:53.784Z,92.76
2022-11-12T19:46:38.660Z,92.25
2022-11-12T19:49:26.416Z,91.74
2022-11-12T19:52:11.725Z,92.61
2022-11-12T19:55:00.892Z,91.78
2022-11-12T19:57:45.962Z,92.10
2022-11-12T20:00:31.076Z,92.14
2022-11-12T20:03:18.019Z,91.76
2022-11-12T20:06:08.230Z,91.28
2022-11-12T20:08:53.460Z,90.69
2022-11-12T20:11:38.260Z,91.06
2022-11-12T20:14:23.256Z,91.12
2022-11-12T20:17:08.392Z,90.20
2022-11-12T20:19:53.231Z,90.70
2022-11-12T20:22:38.083Z,90.31
2022-11-12T20:25:22.982Z,90.94
2022-11-12T20:28:07.991Z,90.47
2022-11-12T20:30:59.689Z,89.60
2022-11-12T20:33:44.786Z,90.19
2022-11-12T20:36:31.334Z,90.55
2022-11-12T20:39:16.514Z,90.87
2022-11-12T20:42:01.601Z,90.87
2022-11-12T20:44:46.742Z,89.79
2022-11-12T20:47:31.660Z,90.25
2022-11-12T20:50:16.807Z,90.05
2022-11-12T20:53:01.925Z,90.23
2022-11-12T20:55:46.889Z,89.94
2022-11-12T20:58:31.916Z,90.25
2022-11-12T21:01:19.590Z,89.86
2022-11-12T21:04:04.769Z,90.53
2022-11-12T21:06:50.212Z,89.50
2022-11-12T21:09:35.607Z,90.35
2022-11-12T21:12:20.469Z,89.06
2022-11-12T21:15:05.933Z,91.46
2022-11-12T21:17:51.827Z,90.95
2022-11-12T21:20:36.879Z,90.70
2022-11-12T21:23:22.249Z,90.47
2022-11-12T21:26:13.061Z,92.21
2022-11-12T21:28:58.341Z,92.56
2022-11-12T21:31:43.478Z,91.56
2022-11-12T21:34:28.928Z,92.45
2022-11-12T21:37:13.862Z,92.47
2022-11-12T21:39:58.879Z,94.41
2022-11-12T21:42:44.897Z,93.04
2022-11-12T21:45:29.831Z,95.63
2022-11-12T21:48:14.788Z,94.45
2022-11-12T21:51:12.205Z,94.03
2022-11-12T21:54:02.454Z,92.80
2022-11-12T21:56:47.643Z,91.69
2022-11-12T21:59:32.905Z,92.50
2022-11-12T22:02:17.792Z,93.97
2022-11-12T22:05:02.580Z,94.05
2022-11-12T22:07:47.387Z,92.95
2022-11-12T22:10:32.480Z,92.68
2022-11-12T22:13:26.855Z,93.17
2022-11-12T22:16:15.400Z,91.86
2022-11-12T22:19:00.738Z,92.38
2022-11-12T22:21:45.927Z,92.30
2022-11-12T22:24:30.814Z,94.74
2022-11-12T22:27:15.649Z,99.51
2022-11-12T22:30:00.569Z,100.00
2022-11-12T22:32:45.469Z,100.00
2022-11-12T22:35:30.381Z,100.00
2022-11-12T22:38:15.303Z,100.00
2022-11-12T22:41:01.932Z,100.00
2022-11-12T22:43:48.950Z,100.00
2022-11-12T22:46:34.689Z,100.00
2022-11-12T22:49:19.613Z,100.00
2022-11-12T22:52:04.738Z,100.00
2022-11-12T22:54:49.806Z,100.00
2022-11-12T22:57:34.753Z,100.00
2022-11-12T23:00:29.133Z,100.00
2022-11-12T23:03:14.221Z,100.00
2022-11-12T23:06:00.581Z,100.00
2022-11-12T23:08:45.883Z,100.00
2022-11-12T23:11:31.625Z,100.00
2022-11-12T23:14:16.561Z,100.00
2022-11-12T23:17:01.987Z,100.00
2022-11-12T23:19:46.958Z,100.00
2022-11-12T23:22:31.900Z,100.00
2022-11-12T23:25:16.858Z,100.00
2022-11-12T23:28:01.802Z,100.00
2022-11-12T23:30:52.860Z,100.00
2022-11-12T23:33:38.364Z,100.00
2022-11-12T23:36:25.075Z,100.00
2022-11-12T23:39:10.185Z,100.00
2022-11-12T23:41:55.091Z,100.00
2022-11-12T23:44:40.217Z,100.00
2022-11-12T23:47:25.402Z,100.00
2022-11-12T23:50:10.573Z,100.00
2022-11-12T23:52:55.383Z,100.00
2022-11-12T23:55:41.179Z,100.00
2022-11-12T23:58:26.534Z,100.00
